Terminal Aerodrome Forecast
Issued by NWS Louisville, KY

Home | Current Version | Previous Version | Text Only | Print | Product List | Glossary On
Versions: 1 2 3 4 5 6 7 8 9 10 11 12 13 14 15 16 17 18 19 20 21 22
000
FTUS43 KLMK 291100
TAFLEX
TAF
KLEX 291120Z 2912/3012 15004KT 6SM BR SCT120
      TEMPO 2912/2913 5SM BR
     FM291400 18009KT P6SM VCSH BKN035
     FM291600 20011KT P6SM VCTS BKN040CB
     FM300100 17007KT P6SM SCT040 SCT250=

USA.gov is the U.S. government's official web portal to all federal, state and local government web resources and services.